Time;durP1;ratioP1;P1;durP2;ratioP2;P2;SDS_P1;SDS_P2;PMS_P1;PMS_P2;Temp;Humidity;BMP_temperature;BMP_pressure;BME280_temperature;BME280_humidity;BME280_pressure;Samples;Min_cycle;Max_cycle;Signal;HPM_P1;HPM_P2
2021/08/06 00:00:10;;;;;;;2.47;2.27;;;;;;;15.91;79.92;98628.41;126866;1087;113962;-80
2021/08/06 00:03:17;;;;;;;2.47;2.23;;;;;;;15.95;80.03;98621.93;126905;1090;102885;-80
2021/08/06 00:06:06;;;;;;;2.20;2.00;;;;;;;15.95;79.98;98632.45;126756;1089;113963;-80
2021/08/06 00:08:55;;;;;;;2.95;2.15;;;;;;;16.00;80.04;98627.69;126879;1090;102969;-80
2021/08/06 00:11:43;;;;;;;2.53;2.20;;;;;;;16.03;79.95;98627.43;126691;1090;114208;-80
2021/08/06 00:14:31;;;;;;;;;;;;;;;16.04;79.88;98623.84;126937;1089;102989;-80
2021/08/06 00:17:18;;;;;;;3.60;2.27;;;;;;;16.03;79.99;98623.97;126802;1089;102922;-80
2021/08/06 00:20:07;;;;;;;2.40;2.03;;;;;;;16.02;79.84;98620.50;126923;1089;101766;-80
2021/08/06 00:22:55;;;;;;;3.43;1.97;;;;;;;16.02;80.13;98612.61;126912;1088;101479;-80
2021/08/06 00:25:42;;;;;;;3.70;2.10;;;;;;;16.04;80.18;98608.06;126829;1089;113839;-80
2021/08/06 00:28:30;;;;;;;2.17;1.80;;;;;;;16.04;79.97;98602.80;126781;1088;102853;-80
2021/08/06 00:31:18;;;;;;;3.07;1.90;;;;;;;16.00;80.05;98602.22;126829;1090;114116;-80
2021/08/06 00:34:07;;;;;;;4.27;1.93;;;;;;;15.97;80.28;98599.81;126811;1090;102888;-80
2021/08/06 00:36:56;;;;;;;2.47;2.00;;;;;;;15.96;80.17;98600.77;126785;1089;113871;-80
2021/08/06 00:39:46;;;;;;;2.10;1.90;;;;;;;15.98;80.49;98606.77;126790;1089;101879;-80
2021/08/06 00:42:35;;;;;;;5.30;2.40;;;;;;;16.01;80.58;98598.63;126737;1090;114222;-81
2021/08/06 00:45:24;;;;;;;2.27;2.07;;;;;;;16.05;80.68;98586.06;126953;1089;101551;-80
2021/08/06 00:48:14;;;;;;;4.20;2.07;;;;;;;16.07;80.64;98586.77;126696;1089;114164;-80
2021/08/06 00:51:02;;;;;;;2.60;2.00;;;;;;;16.03;80.45;98579.27;126994;1088;102939;-80
2021/08/06 00:53:51;;;;;;;3.40;2.03;;;;;;;16.00;80.49;98567.20;126840;1087;113040;-80
2021/08/06 00:56:41;;;;;;;2.57;1.77;;;;;;;15.98;80.58;98571.75;126898;1090;102861;-79
2021/08/06 00:59:30;;;;;;;1.97;1.80;;;;;;;15.98;80.66;98563.87;126875;1090;114362;-80
2021/08/06 01:02:26;;;;;;;2.73;1.90;;;;;;;15.99;80.89;98557.64;126903;1090;102898;-80
2021/08/06 01:05:17;;;;;;;1.97;1.77;;;;;;;16.01;80.82;98547.83;126999;1090;102876;-79
2021/08/06 01:08:14;;;;;;;2.23;1.90;;;;;;;16.00;80.63;98546.17;126930;1090;102930;-79
2021/08/06 01:11:04;;;;;;;1.90;1.80;;;;;;;15.98;80.53;98548.09;126905;1090;102857;-80
2021/08/06 01:14:02;;;;;;;1.90;1.70;;;;;;;15.98;80.81;98548.09;126748;1088;114224;-80
2021/08/06 01:16:54;;;;;;;2.83;1.90;;;;;;;15.94;81.05;98544.02;126779;1090;104539;-80
2021/08/06 01:20:15;;;;;;;2.37;1.77;;;;;;;15.89;81.27;98530.42;126872;1090;113989;-80
2021/08/06 01:23:23;;;;;;;2.00;1.90;;;;;;;15.86;81.16;98525.41;126929;1089;102884;-80
2021/08/06 01:26:11;;;;;;;3.90;2.00;;;;;;;15.82;81.50;98522.20;126870;1090;113726;-80
2021/08/06 01:29:08;;;;;;;3.23;2.00;;;;;;;15.80;81.52;98507.48;126928;1089;105132;-79
2021/08/06 01:32:02;;;;;;;1.97;1.73;;;;;;;15.78;81.57;98509.41;126845;1089;114136;-80
2021/08/06 01:34:51;;;;;;;2.67;1.70;;;;;;;15.75;81.84;98497.36;126861;1090;103061;-80
2021/08/06 01:37:41;;;;;;;2.67;1.73;;;;;;;15.75;81.51;98497.36;126890;1089;112853;-79
2021/08/06 01:40:41;;;;;;;2.00;1.80;;;;;;;15.75;81.59;98497.36;126767;1089;102934;-79
2021/08/06 01:43:53;;;;;;;2.50;1.80;;;;;;;15.74;81.62;98494.85;126815;1090;114252;-79
2021/08/06 01:46:47;;;;;;;1.67;1.57;;;;;;;15.74;81.68;98485.17;126973;1089;103360;-79
2021/08/06 01:49:41;;;;;;;2.57;2.20;;;;;;;15.72;81.90;98492.35;126726;1088;114102;-79
2021/08/06 01:52:36;;;;;;;1.60;1.50;;;;;;;15.69;81.85;98477.67;126969;1089;102853;-80
2021/08/06 01:55:31;;;;;;;1.77;1.60;;;;;;;15.65;81.96;98472.80;126813;1088;113042;-80
2021/08/06 01:58:20;;;;;;;3.43;1.37;;;;;;;15.61;82.24;98472.18;126934;1090;102953;-79
2021/08/06 02:01:15;;;;;;;1.67;1.37;;;;;;;15.60;82.20;98478.40;126740;1089;114211;-80
2021/08/06 02:04:25;;;;;;;2.67;1.97;;;;;;;15.61;82.31;98468.72;126908;1090;102795;-80
2021/08/06 02:07:34;;;;;;;3.33;1.70;;;;;;;15.58;82.22;98466.31;126877;1089;114137;-79
2021/08/06 02:10:24;;;;;;;1.70;1.60;;;;;;;15.56;82.45;98466.44;126950;1090;102876;-79
2021/08/06 02:13:13;;;;;;;1.90;1.53;;;;;;;15.55;82.60;98470.03;126859;1088;112954;-80
2021/08/06 02:16:03;;;;;;;1.75;1.30;;;;;;;15.53;82.49;98455.34;126780;1087;102899;-79
2021/08/06 02:18:56;;;;;;;1.57;1.40;;;;;;;15.53;82.34;98450.92;126820;1089;114096;-79
2021/08/06 02:21:54;;;;;;;1.43;1.33;;;;;;;15.56;83.10;98440.16;126861;1088;102962;-80
2021/08/06 02:24:44;;;;;;;1.77;1.40;;;;;;;15.54;82.61;98438.63;126838;1090;114144;-80
2021/08/06 02:27:37;;;;;;;1.70;1.33;;;;;;;15.52;83.09;98422.98;126977;1090;101892;-80
2021/08/06 02:30:29;;;;;;;1.43;1.20;;;;;;;15.49;82.95;98427.66;126768;1090;114393;-81
2021/08/06 02:33:17;;;;;;;1.67;1.47;;;;;;;15.45;83.17;98410.48;126782;1088;103359;-81
2021/08/06 02:36:05;;;;;;;1.50;1.20;;;;;;;15.43;83.36;98408.79;126852;1090;116799;-81
2021/08/06 02:38:57;;;;;;;2.20;1.13;;;;;;;15.42;83.25;98411.55;126983;1090;103390;-81
2021/08/06 02:41:46;;;;;;;1.13;1.00;;;;;;;15.38;83.41;98410.13;126915;1089;102943;-81
2021/08/06 02:44:36;;;;;;;2.83;1.27;;;;;;;15.32;83.79;98408.84;126976;1087;102847;-80
2021/08/06 02:47:23;;;;;;;1.47;1.00;;;;;;;15.31;83.86;98406.34;126878;1090;102953;-81
2021/08/06 02:50:12;;;;;;;0.70;0.70;;;;;;;15.33;83.63;98409.67;126854;1089;114123;-81
2021/08/06 02:53:01;;;;;;;0.83;0.83;;;;;;;15.32;83.51;98402.76;126879;1088;102876;-81
2021/08/06 02:55:48;;;;;;;2.03;0.70;;;;;;;15.31;83.61;98401.92;126822;1090;114095;-81
2021/08/06 02:58:36;;;;;;;1.63;1.00;;;;;;;15.31;83.85;98393.21;126918;1090;103008;-81
2021/08/06 03:01:23;;;;;;;;;;;;;;;15.32;83.91;98394.88;126877;1088;114100;-81
2021/08/06 03:04:14;;;;;;;1.50;0.80;;;;;;;15.32;84.01;98393.08;126922;1090;102901;-81
2021/08/06 03:07:03;;;;;;;1.00;0.70;;;;;;;15.28;83.90;98393.46;126899;1089;114287;-81
2021/08/06 03:09:51;;;;;;;0.70;0.70;;;;;;;15.23;83.74;98388.56;126947;1088;101558;-81
2021/08/06 03:12:40;;;;;;;1.43;0.90;;;;;;;15.20;83.75;98390.60;126662;1089;114270;-81
2021/08/06 03:15:28;;;;;;;1.47;0.70;;;;;;;15.20;84.05;98385.34;126927;1089;102944;-81
2021/08/06 03:18:15;;;;;;;0.77;0.70;;;;;;;15.18;84.01;98382.02;126750;1090;114838;-81
2021/08/06 03:21:03;;;;;;;1.87;0.80;;;;;;;15.17;83.71;98381.19;126931;1090;101176;-81
2021/08/06 03:23:52;;;;;;;1.07;0.80;;;;;;;15.16;83.82;98373.43;126956;1090;102923;-81
2021/08/06 03:26:41;;;;;;;1.10;0.80;;;;;;;15.14;83.93;98376.19;126826;1089;112912;-81
2021/08/06 03:29:29;;;;;;;1.27;0.70;;;;;;;15.13;83.68;98373.69;126831;1089;103012;-81
2021/08/06 03:32:17;;;;;;;0.70;0.70;;;;;;;15.10;83.88;98369.52;126845;1089;114037;-81
2021/08/06 03:35:07;;;;;;;0.70;0.70;;;;;;;15.09;83.94;98373.94;126916;1090;102844;-81
2021/08/06 03:37:57;;;;;;;0.87;0.77;;;;;;;15.07;84.10;98373.20;126863;1089;113962;-81
2021/08/06 03:40:44;;;;;;;;;;;;;;;15.05;83.79;98372.48;126994;1090;102955;-81
2021/08/06 03:43:32;;;;;;;1.10;1.00;;;;;;;15.03;84.17;98368.33;126866;1090;102876;-81
2021/08/06 03:46:20;;;;;;;1.10;0.60;;;;;;;15.00;84.08;98364.16;127026;1089;102975;-81
2021/08/06 03:49:09;;;;;;;0.60;0.50;;;;;;;14.99;84.20;98362.48;126899;1090;114114;-81
2021/08/06 03:51:59;;;;;;;1.00;0.70;;;;;;;14.99;83.88;98354.61;127059;1090;102875;-81
2021/08/06 03:54:47;;;;;;;2.27;0.60;;;;;;;15.00;84.33;98337.91;126888;1090;114222;-81
2021/08/06 03:57:46;;;;;;;0.63;0.50;;;;;;;15.02;84.26;98350.91;126910;1090;102828;-81
2021/08/06 04:00:39;;;;;;;0.67;0.50;;;;;;;15.04;84.06;98352.45;126820;1089;113453;-81
2021/08/06 04:03:28;;;;;;;1.23;0.60;;;;;;;15.04;84.12;98341.95;126855;1088;103078;-81
2021/08/06 04:06:16;;;;;;;;;;;;;;;15.03;83.84;98358.66;126832;1090;102939;-80
2021/08/06 04:09:03;;;;;;;1.10;0.80;;;;;;;15.04;84.36;98352.45;126958;1089;102930;-81
2021/08/06 04:11:51;;;;;;;1.10;0.90;;;;;;;15.05;84.23;98351.48;126885;1090;103077;-81
2021/08/06 04:14:39;;;;;;;0.63;0.63;;;;;;;15.07;84.38;98351.36;126784;1088;114561;-81
2021/08/06 04:17:27;;;;;;;;;;;;;;;15.07;84.19;98349.56;126960;1089;102971;-81
2021/08/06 04:20:15;;;;;;;1.15;0.63;;;;;;;15.05;83.96;98351.48;126888;1090;102909;-81
2021/08/06 04:23:03;;;;;;;1.33;0.73;;;;;;;15.02;84.24;98335.98;126905;1090;102954;-81
2021/08/06 04:25:51;;;;;;;0.60;0.50;;;;;;;15.01;84.05;98338.73;126802;1089;114129;-81
2021/08/06 04:28:40;;;;;;;1.00;0.90;;;;;;;15.01;84.03;98336.95;126967;1090;102869;-81
2021/08/06 04:31:29;;;;;;;0.70;0.70;;;;;;;15.01;84.35;98334.32;126632;1088;113264;-81
2021/08/06 04:34:18;;;;;;;1.37;0.80;;;;;;;15.01;84.30;98329.07;126970;1088;102932;-82
2021/08/06 04:37:05;;;;;;;0.87;0.70;;;;;;;15.03;84.23;98332.41;126867;1090;113532;-81
2021/08/06 04:39:53;;;;;;;1.57;0.53;;;;;;;15.04;84.10;98335.86;126885;1089;102979;-81
2021/08/06 04:42:41;;;;;;;0.83;0.63;;;;;;;15.02;84.30;98330.73;126935;1089;102991;-81
2021/08/06 04:45:30;;;;;;;1.30;0.60;;;;;;;15.03;84.14;98321.90;126945;1090;102737;-81
2021/08/06 04:48:19;;;;;;;0.80;0.60;;;;;;;15.06;84.03;98320.81;126958;1090;102859;-81
2021/08/06 04:51:07;;;;;;;2.47;0.93;;;;;;;15.09;84.30;98331.09;126721;1089;114057;-81
2021/08/06 04:53:55;;;;;;;1.00;0.90;;;;;;;15.08;84.05;98325.02;126918;1090;102952;-81
2021/08/06 04:56:44;;;;;;;0.70;0.70;;;;;;;15.10;83.91;98311.75;126758;1090;114093;-81
2021/08/06 04:59:35;;;;;;;0.90;0.53;;;;;;;15.10;84.17;98315.22;126932;1090;102865;-81
2021/08/06 05:02:23;;;;;;;2.10;0.60;;;;;;;15.14;83.69;98320.21;126623;1090;114123;-81
2021/08/06 05:05:16;;;;;;;0.77;0.60;;;;;;;15.13;83.96;98308.88;126766;1088;103313;-81
2021/08/06 05:08:03;;;;;;;;;;;;;;;15.15;83.82;98306.95;126713;1090;114316;-80
2021/08/06 05:10:51;;;;;;;1.03;0.73;;;;;;;15.14;83.85;98302.66;126961;1090;102916;-81
2021/08/06 05:13:39;;;;;;;1.40;0.80;;;;;;;15.16;83.58;98310.41;126773;1090;114048;-81
2021/08/06 05:16:27;;;;;;;2.87;0.80;;;;;;;15.18;83.72;98313.74;126944;1088;103350;-81
2021/08/06 05:19:16;;;;;;;0.93;0.73;;;;;;;15.18;83.80;98305.86;126875;1090;114098;-81
2021/08/06 05:22:04;;;;;;;1.07;0.70;;;;;;;15.21;83.85;98321.37;126899;1090;103011;-80
2021/08/06 05:24:52;;;;;;;1.67;0.90;;;;;;;15.26;83.73;98311.31;126965;1090;103378;-80
2021/08/06 05:27:46;;;;;;;1.37;0.80;;;;;;;15.29;83.95;98321.59;126840;1089;113997;-80
2021/08/06 05:30:35;;;;;;;1.00;0.90;;;;;;;15.31;83.46;98323.13;126982;1089;103933;-80
2021/08/06 05:33:23;;;;;;;2.10;0.60;;;;;;;15.33;83.49;98312.49;126839;1089;114175;-80
2021/08/06 05:36:13;;;;;;;1.10;0.90;;;;;;;15.33;83.31;98318.58;126857;1090;102862;-80
2021/08/06 05:39:02;;;;;;;1.47;0.80;;;;;;;15.31;83.38;98309.99;126850;1089;112938;-81
2021/08/06 05:42:10;;;;;;;1.53;0.87;;;;;;;15.31;83.31;98315.25;126882;1089;103049;-81
2021/08/06 05:44:59;;;;;;;0.70;0.70;;;;;;;15.33;83.43;98317.75;126862;1090;114263;-81
2021/08/06 05:47:53;;;;;;;0.90;0.73;;;;;;;15.38;83.26;98318.19;126962;1090;102899;-83
2021/08/06 05:50:44;;;;;;;340.70;133.60;;;;;;;15.41;83.50;98310.05;126761;1090;114471;-79
2021/08/06 05:53:35;;;;;;;14.93;7.10;;;;;;;15.48;83.29;98311.23;126832;1089;102949;-79
2021/08/06 05:56:24;;;;;;;8.13;3.03;;;;;;;15.51;83.41;98316.23;126808;1088;114308;-79
2021/08/06 05:59:13;;;;;;;3.37;1.80;;;;;;;15.58;83.17;98309.48;126800;1090;102996;-79
2021/08/06 06:02:01;;;;;;;2.40;1.10;;;;;;;15.62;83.04;98300.45;126694;1089;114283;-79
2021/08/06 06:05:03;;;;;;;2.80;1.40;;;;;;;15.65;82.88;98312.48;126748;1089;101704;-79
2021/08/06 06:07:52;;;;;;;1.57;1.47;;;;;;;15.65;82.75;98305.44;126715;1089;114220;-79
2021/08/06 06:10:40;;;;;;;2.40;1.60;;;;;;;15.71;82.19;98302.28;126806;1088;102657;-79
2021/08/06 06:13:28;;;;;;;2.57;1.63;;;;;;;15.75;82.51;98302.02;126846;1090;114164;-79
2021/08/06 06:16:17;;;;;;;3.27;1.50;;;;;;;15.73;82.04;98299.53;126825;1089;102892;-79
2021/08/06 06:19:05;;;;;;;4.77;1.70;;;;;;;15.73;82.23;98307.41;126822;1088;103097;-79
2021/08/06 06:21:53;;;;;;;3.77;1.90;;;;;;;15.70;82.33;98303.25;126654;1089;113717;-79
2021/08/06 06:24:41;;;;;;;4.43;2.90;;;;;;;15.73;81.98;98304.78;126891;1087;102848;-80
2021/08/06 06:27:29;;;;;;;2.73;1.60;;;;;;;15.74;81.99;98302.98;126845;1089;114001;-81
2021/08/06 06:30:20;;;;;;;1.47;1.20;;;;;;;15.72;81.90;98308.38;126660;1089;102875;-80
2021/08/06 06:33:09;;;;;;;1.53;1.10;;;;;;;15.70;81.59;98316.39;126728;1090;113190;-80
2021/08/06 06:35:57;;;;;;;3.63;2.07;;;;;;;15.68;82.04;98313.06;126816;1090;102852;-80
2021/08/06 06:38:46;;;;;;;3.20;1.90;;;;;;;15.66;81.61;98309.73;126852;1086;114001;-79
2021/08/06 06:41:33;;;;;;;2.77;1.60;;;;;;;15.68;81.70;98313.06;126943;1090;102868;-80
2021/08/06 06:44:30;;;;;;;2.47;1.43;;;;;;;15.67;81.72;98319.28;126853;1089;113953;-80
2021/08/06 06:47:18;;;;;;;3.77;2.27;;;;;;;15.68;81.88;98313.06;126939;1089;102876;-79
2021/08/06 06:50:09;;;;;;;5.00;2.20;;;;;;;15.71;81.67;98315.42;126827;1089;114498;-79
2021/08/06 06:52:58;;;;;;;4.85;2.30;;;;;;;15.74;81.76;98305.61;127045;1089;102853;-79
2021/08/06 06:55:46;;;;;;;6.70;3.40;;;;;;;15.77;81.57;98310.61;126850;1089;114348;-80
2021/08/06 06:58:35;;;;;;;4.37;2.67;;;;;;;15.76;81.64;98311.58;126972;1088;102856;-80
2021/08/06 07:01:23;;;;;;;4.33;2.40;;;;;;;15.77;81.53;98323.75;126889;1090;103016;-79
2021/08/06 07:04:11;;;;;;;5.63;2.57;;;;;;;15.76;81.61;98320.29;126879;1089;113787;-79
2021/08/06 07:06:59;;;;;;;;;;;;;;;15.75;81.59;98323.05;127020;1089;103005;-79
2021/08/06 07:09:47;;;;;;;7.20;2.60;;;;;;;15.74;81.53;98321.39;126960;1087;102855;-80
2021/08/06 07:12:40;;;;;;;3.77;2.30;;;;;;;15.76;81.65;98315.03;126975;1087;102953;-79
2021/08/06 07:15:28;;;;;;;3.73;1.90;;;;;;;15.77;81.56;98319.33;126889;1088;114113;-79
2021/08/06 07:18:17;;;;;;;4.93;2.20;;;;;;;15.77;81.43;98323.75;127024;1090;103020;-79
2021/08/06 07:21:06;;;;;;;7.60;1.90;;;;;;;15.73;81.50;98331.06;126919;1090;114359;-79
2021/08/06 07:23:54;;;;;;;2.27;1.10;;;;;;;15.79;81.60;98327.91;126894;1089;102907;-79
2021/08/06 07:26:42;;;;;;;2.23;1.20;;;;;;;15.84;81.40;98320.50;126682;1089;114322;-79
2021/08/06 07:29:30;;;;;;;1.50;0.90;;;;;;;15.86;81.56;98326.45;126930;1090;102907;-80
2021/08/06 07:32:18;;;;;;;;;;;;;;;15.89;81.42;98322.73;126919;1089;114221;-80
2021/08/06 07:35:12;;;;;;;1.77;0.90;;;;;;;15.87;81.32;98322.86;126935;1090;102931;-80
2021/08/06 07:38:01;;;;;;;1.77;1.07;;;;;;;15.92;81.47;98335.61;126784;1088;113946;-80
2021/08/06 07:40:49;;;;;;;1.23;0.80;;;;;;;15.96;81.30;98324.70;126746;1090;103071;-79
2021/08/06 07:43:37;;;;;;;1.60;1.20;;;;;;;15.97;81.56;98328.16;126763;1089;102744;-80
2021/08/06 07:46:26;;;;;;;1.30;0.97;;;;;;;15.94;81.11;98329.26;126850;1090;113438;-80
2021/08/06 07:49:13;;;;;;;;;;;;;;;15.94;81.17;98331.05;126798;1089;102850;-81
2021/08/06 07:52:02;;;;;;;0.73;0.67;;;;;;;15.88;80.86;98335.05;126896;1089;101365;-80
2021/08/06 07:54:50;;;;;;;0.53;0.53;;;;;;;15.87;81.08;98322.03;126864;1089;102927;-79
2021/08/06 07:57:37;;;;;;;;;;;;;;;15.84;81.24;98324.92;126821;1089;113921;-79
2021/08/06 08:00:26;;;;;;;;;;;;;;;15.80;81.10;98326.12;126945;1089;102920;-81
2021/08/06 08:03:14;;;;;;;0.80;0.70;;;;;;;15.74;80.79;98332.73;126907;1088;102868;-80
2021/08/06 08:06:03;;;;;;;1.60;0.63;;;;;;;15.71;80.90;98333.83;126808;1090;102990;-80
2021/08/06 08:08:51;;;;;;;0.70;0.70;;;;;;;15.74;81.23;98331.90;126891;1089;114283;-79
2021/08/06 08:11:39;;;;;;;1.00;0.60;;;;;;;15.75;81.18;98331.77;126688;1090;102939;-79
2021/08/06 08:14:27;;;;;;;0.90;0.70;;;;;;;15.71;81.12;98328.56;126880;1090;114207;-80
2021/08/06 08:17:18;;;;;;;0.40;0.30;;;;;;;15.68;80.96;98334.09;127042;1090;102836;-80
2021/08/06 08:20:08;;;;;;;1.10;0.60;;;;;;;15.67;81.25;98332.42;126810;1090;102917;-81
2021/08/06 08:22:57;;;;;;;1.00;0.60;;;;;;;15.69;81.04;98333.13;126918;1089;102903;-81
2021/08/06 08:25:49;;;;;;;1.67;0.90;;;;;;;15.68;81.00;98328.83;126977;1088;102881;-80
2021/08/06 08:28:37;;;;;;;0.90;0.60;;;;;;;15.73;81.20;98331.06;126787;1088;113310;-80
2021/08/06 08:31:25;;;;;;;7.13;4.80;;;;;;;15.79;81.14;98324.45;126912;1089;102946;-78
2021/08/06 08:34:13;;;;;;;0.90;0.50;;;;;;;15.81;80.97;98327.81;126890;1090;114090;-79
2021/08/06 08:37:01;;;;;;;1.67;1.00;;;;;;;15.83;81.09;98325.89;126685;1090;102007;-79
2021/08/06 08:39:49;;;;;;;1.33;1.00;;;;;;;15.85;80.73;98327.42;126867;1090;114256;-79
2021/08/06 08:42:38;;;;;;;2.20;1.33;;;;;;;15.87;81.04;98327.29;126798;1090;102887;-79
2021/08/06 08:45:27;;;;;;;3.07;1.53;;;;;;;15.88;80.88;98335.05;126869;1088;114060;-79
2021/08/06 08:48:17;;;;;;;1.37;1.27;;;;;;;15.90;80.76;98334.91;126953;1090;102844;-80
2021/08/06 08:51:20;;;;;;;0.53;0.50;;;;;;;15.87;80.60;98327.29;126812;1090;114034;-80
2021/08/06 08:54:08;;;;;;;0.63;0.60;;;;;;;15.86;80.83;98330.88;126983;1090;103498;-80
2021/08/06 08:56:58;;;;;;;0.33;0.33;;;;;;;15.85;80.63;98329.22;126798;1090;114367;-80
2021/08/06 08:59:46;;;;;;;1.33;0.73;;;;;;;15.83;80.57;98331.14;126981;1089;103026;-80
2021/08/06 09:02:39;;;;;;;0.67;0.50;;;;;;;15.75;80.62;98330.94;126859;1090;115123;-80
2021/08/06 09:05:28;;;;;;;1.23;0.47;;;;;;;15.71;81.01;98333.83;126921;1089;102992;-80
2021/08/06 09:08:19;;;;;;;0.70;0.63;;;;;;;15.75;81.05;98341.45;126928;1089;102741;-80
2021/08/06 09:11:36;;;;;;;0.40;0.40;;;;;;;15.77;81.06;98334.27;126780;1089;103019;-80
2021/08/06 09:14:42;;;;;;;0.67;0.60;;;;;;;15.80;81.15;98334.00;126931;1087;102865;-79
2021/08/06 09:17:37;;;;;;;0.50;0.50;;;;;;;15.79;80.89;98334.97;126865;1090;113950;-79
2021/08/06 09:20:38;;;;;;;0.40;0.40;;;;;;;15.80;80.71;98326.12;126818;1088;101832;-80
2021/08/06 09:23:46;;;;;;;0.70;0.67;;;;;;;15.82;80.81;98339.99;126847;1089;112802;-81
2021/08/06 09:26:46;;;;;;;0.80;0.30;;;;;;;15.86;80.92;98339.59;126958;1090;103129;-80
2021/08/06 09:29:44;;;;;;;0.40;0.40;;;;;;;15.87;80.88;98333.38;126891;1089;113838;-81
2021/08/06 09:32:51;;;;;;;1.10;0.80;;;;;;;15.93;80.87;98340.73;126933;1089;101918;-81
2021/08/06 09:36:12;;;;;;;0.83;0.47;;;;;;;15.96;80.59;98353.62;126778;1089;112996;-81
2021/08/06 09:39:17;;;;;;;0.90;0.35;;;;;;;16.01;80.53;98346.20;126927;1088;102892;-81
2021/08/06 09:42:35;;;;;;;0.30;0.30;;;;;;;16.07;80.74;98344.00;126962;1089;102687;-81
2021/08/06 09:45:28;;;;;;;0.93;0.70;;;;;;;16.12;80.77;98355.79;126978;1090;103836;-81
2021/08/06 09:48:22;;;;;;;3.43;0.67;;;;;;;16.15;80.42;98354.69;126856;1089;113819;-81
2021/08/06 09:51:13;;;;;;;0.40;0.37;;;;;;;16.20;80.31;98355.16;126933;1090;101889;-81
2021/08/06 09:54:01;;;;;;;0.50;0.30;;;;;;;16.20;80.06;98355.16;126809;1089;114117;-81
2021/08/06 09:57:00;;;;;;;0.40;0.40;;;;;;;16.18;79.79;98352.66;126999;1088;102854;-81
2021/08/06 09:59:54;;;;;;;0.30;0.30;;;;;;;16.15;79.77;98363.41;126720;1090;115252;-81
2021/08/06 10:02:43;;;;;;;0.40;0.30;;;;;;;16.15;79.64;98363.41;126897;1089;102855;-81
2021/08/06 10:05:33;;;;;;;0.93;0.33;;;;;;;16.21;79.66;98360.28;126826;1090;114200;-81
2021/08/06 10:08:21;;;;;;;;;;;;;;;16.22;79.71;98359.32;126874;1088;103013;-81
2021/08/06 10:11:10;;;;;;;0.40;0.20;;;;;;;16.19;79.62;98364.84;126780;1090;102669;-81
2021/08/06 10:13:58;;;;;;;0.47;0.40;;;;;;;16.25;79.87;98366.11;126942;1090;102644;-81
2021/08/06 10:16:46;;;;;;;0.40;0.40;;;;;;;16.28;79.66;98379.00;126849;1089;113069;-80
2021/08/06 10:19:34;;;;;;;1.97;1.47;;;;;;;16.26;79.20;98376.50;126819;1090;102893;-80
2021/08/06 10:22:21;;;;;;;1.37;0.83;;;;;;;16.22;79.61;98375.09;126779;1090;114406;-80
2021/08/06 10:25:13;;;;;;;0.33;0.30;;;;;;;16.23;79.33;98375.94;126923;1089;102901;-81
2021/08/06 10:28:04;;;;;;;1.00;0.70;;;;;;;16.19;79.35;98383.25;126772;1089;114161;-80
2021/08/06 10:31:18;;;;;;;2.70;1.00;;;;;;;16.20;79.41;98384.92;126910;1090;102920;-81
2021/08/06 10:34:09;;;;;;;0.97;0.63;;;;;;;16.19;79.15;98382.42;126779;1088;114243;-81
2021/08/06 10:37:00;;;;;;;0.30;0.30;;;;;;;16.16;79.26;98383.52;126897;1088;103121;-80
2021/08/06 10:39:53;;;;;;;1.23;0.50;;;;;;;16.20;79.07;98386.72;126898;1089;102976;-80
2021/08/06 10:42:41;;;;;;;0.40;0.30;;;;;;;16.21;79.26;98383.95;126867;1090;113146;-80
2021/08/06 10:46:08;;;;;;;0.50;0.23;;;;;;;16.22;79.26;98395.31;126988;1090;102917;-80
2021/08/06 10:49:09;;;;;;;0.73;0.40;;;;;;;16.21;78.85;98389.22;126335;1093;113791;-81
2021/08/06 10:52:19;;;;;;;0.80;0.30;;;;;;;16.18;78.78;98397.38;126656;1093;102685;-81
2021/08/06 10:55:27;;;;;;;0.33;0.30;;;;;;;16.13;78.90;98385.55;126601;1093;113880;-81
2021/08/06 10:58:45;;;;;;;0.47;0.17;;;;;;;16.10;78.57;98406.85;126721;1093;102872;-81
2021/08/06 11:01:34;;;;;;;0.70;0.30;;;;;;;16.07;78.70;98402.69;126718;1092;102846;-81
2021/08/06 11:04:33;;;;;;;0.60;0.40;;;;;;;16.08;79.00;98403.52;126782;1092;102887;-81
2021/08/06 11:07:37;;;;;;;0.23;0.23;;;;;;;16.06;78.74;98406.28;126624;1090;113292;-81
2021/08/06 11:10:46;;;;;;;0.67;0.43;;;;;;;16.03;78.96;98406.55;126749;1092;103111;-81
2021/08/06 11:13:37;;;;;;;0.87;0.50;;;;;;;16.04;79.01;98407.38;126369;1093;114736;-80
2021/08/06 11:16:25;;;;;;;0.60;0.40;;;;;;;16.06;79.13;98400.19;126759;1092;103039;-80
2021/08/06 11:19:13;;;;;;;0.23;0.23;;;;;;;16.08;79.07;98403.52;126592;1090;112893;-80
2021/08/06 11:22:28;;;;;;;0.57;0.40;;;;;;;16.07;78.80;98410.58;126811;1090;102981;-80
2021/08/06 11:25:25;;;;;;;0.23;0.20;;;;;;;16.04;78.79;98416.10;126822;1089;114344;-80
2021/08/06 11:28:25;;;;;;;0.30;0.30;;;;;;;16.06;78.81;98408.91;126824;1088;103502;-80
2021/08/06 11:31:18;;;;;;;3.30;2.27;;;;;;;16.08;78.68;98408.78;126880;1087;114218;-81
2021/08/06 11:34:06;;;;;;;0.70;0.70;;;;;;;16.01;78.38;98417.20;126887;1090;103009;-80
2021/08/06 11:37:00;;;;;;;0.57;0.47;;;;;;;15.96;78.44;98413.26;126801;1089;114058;-80
2021/08/06 11:40:11;;;;;;;0.90;0.40;;;;;;;15.90;78.32;98422.50;126942;1088;103386;-81
2021/08/06 11:43:19;;;;;;;0.67;0.53;;;;;;;15.91;78.52;98412.81;126850;1090;113973;-80
2021/08/06 11:46:15;;;;;;;0.40;0.30;;;;;;;15.95;78.49;98417.69;126881;1090;102846;-81
2021/08/06 11:49:05;;;;;;;0.70;0.60;;;;;;;15.96;78.74;98419.35;126874;1090;114146;-80
2021/08/06 11:51:58;;;;;;;0.40;0.30;;;;;;;15.95;78.45;98420.31;126977;1090;102749;-81
2021/08/06 11:54:53;;;;;;;0.20;0.20;;;;;;;15.95;78.41;98425.57;126877;1090;114138;-81
2021/08/06 11:57:55;;;;;;;2.30;0.40;;;;;;;15.97;78.34;98413.13;126973;1090;103007;-81
2021/08/06 12:00:57;;;;;;;0.60;0.47;;;;;;;15.99;78.15;98426.17;126937;1089;114290;-81
2021/08/06 12:03:54;;;;;;;0.20;0.20;;;;;;;15.97;78.34;98426.27;126838;1089;103005;-81
2021/08/06 12:06:44;;;;;;;;;;;;;;;16.00;78.15;98417.33;126860;1090;113980;-81
2021/08/06 12:09:31;;;;;;;0.65;0.30;;;;;;;15.95;77.71;98419.48;127011;1088;102884;-81
2021/08/06 12:12:29;;;;;;;0.33;0.27;;;;;;;15.93;77.90;98426.66;126814;1089;113927;-80
2021/08/06 12:15:26;;;;;;;0.20;0.20;;;;;;;15.98;77.71;98430.60;126847;1090;102919;-81
2021/08/06 12:18:19;;;;;;;0.17;0.17;;;;;;;15.92;77.37;98425.83;126735;1089;114005;-81
2021/08/06 12:21:17;;;;;;;0.37;0.30;;;;;;;15.81;77.79;98428.53;126869;1089;102824;-80
2021/08/06 12:24:22;;;;;;;0.33;0.20;;;;;;;15.78;77.75;98433.19;126913;1089;114032;-80
2021/08/06 12:27:10;;;;;;;0.20;0.20;;;;;;;15.71;77.68;98435.48;126938;1089;102962;-80
2021/08/06 12:29:57;;;;;;;1.33;0.20;;;;;;;15.68;77.74;98439.20;126843;1089;113258;-81
2021/08/06 12:32:48;;;;;;;0.20;0.20;;;;;;;15.62;77.62;98439.72;126953;1090;102971;-80
2021/08/06 12:35:36;;;;;;;1.55;0.30;;;;;;;15.58;77.96;98448.75;126804;1088;114356;-80
2021/08/06 12:38:27;;;;;;;0.87;0.30;;;;;;;15.62;78.45;98458.11;126976;1088;102865;-81
2021/08/06 12:41:26;;;;;;;0.67;0.20;;;;;;;15.59;77.94;98452.25;126971;1090;101352;-80
2021/08/06 12:44:27;;;;;;;0.70;0.67;;;;;;;15.53;78.22;98450.92;126991;1089;102862;-80
2021/08/06 12:47:17;;;;;;;0.60;0.40;;;;;;;15.51;78.22;98452.84;126930;1088;102903;-80
2021/08/06 12:50:08;;;;;;;0.47;0.40;;;;;;;15.52;77.95;98456.31;126863;1089;113661;-80
2021/08/06 12:53:10;;;;;;;0.70;0.50;;;;;;;15.50;77.65;98458.23;126916;1090;102929;-80
2021/08/06 12:56:06;;;;;;;0.93;0.40;;;;;;;15.44;77.95;98475.33;126907;1090;113509;-80
2021/08/06 12:59:16;;;;;;;1.10;0.43;;;;;;;15.42;78.12;98477.22;126955;1089;102939;-81
2021/08/06 13:02:22;;;;;;;0.97;0.80;;;;;;;15.43;78.24;98481.52;126903;1090;112621;-80
2021/08/06 13:05:12;;;;;;;1.37;0.50;;;;;;;15.39;78.10;98482.72;126862;1090;103110;-80
2021/08/06 13:08:19;;;;;;;0.63;0.40;;;;;;;15.34;78.30;98484.89;126881;1090;114136;-80
2021/08/06 13:11:11;;;;;;;5.37;3.60;;;;;;;15.28;78.20;98495.89;126964;1089;102887;-80
2021/08/06 13:14:05;;;;;;;0.80;0.80;;;;;;;15.26;78.17;98492.52;126852;1090;112824;-81